Time;durP1;ratioP1;P1;durP2;ratioP2;P2;SDS_P1;SDS_P2;PMS_P1;PMS_P2;Temp;Humidity;BMP_temperature;BMP_pressure;BME280_temperature;BME280_humidity;BME280_pressure;Samples;Min_cycle;Max_cycle;Signal;HPM_P1;HPM_P2
2023/07/25 00:02:02;;;;;;;9.90;6.90;;;;;;;16.53;100.00;96670.64;107046;1274;24223;-79
2023/07/25 00:04:30;;;;;;;8.80;6.80;;;;;;;16.49;100.00;96676.02;107184;1274;25427;-79
2023/07/25 00:06:58;;;;;;;10.00;6.90;;;;;;;16.41;100.00;96677.30;107193;1274;22575;-79
2023/07/25 00:09:26;;;;;;;9.00;7.10;;;;;;;16.38;100.00;96674.00;107122;1274;24202;-78
2023/07/25 00:11:53;;;;;;;12.50;7.50;;;;;;;16.31;100.00;96672.43;106883;1274;25395;-78
2023/07/25 00:14:21;;;;;;;11.70;6.40;;;;;;;16.29;100.00;96676.35;107162;1274;22520;-79
2023/07/25 00:16:50;;;;;;;11.20;6.90;;;;;;;16.31;100.00;96675.38;107185;1274;22530;-78
2023/07/25 00:19:18;;;;;;;7.50;6.30;;;;;;;16.36;100.00;96677.69;107169;1274;22641;-79
2023/07/25 00:21:46;;;;;;;8.50;7.00;;;;;;;16.40;100.00;96674.17;107200;1274;22881;-78
2023/07/25 00:24:14;;;;;;;9.80;7.30;;;;;;;16.45;100.00;96668.20;107139;1274;24255;-78
2023/07/25 00:26:42;;;;;;;13.50;6.70;;;;;;;16.50;100.00;96676.81;106958;1274;196318;-78
2023/07/25 00:29:10;;;;;;;10.70;7.80;;;;;;;16.54;100.00;96676.86;107134;1274;24522;-78
2023/07/25 00:31:38;;;;;;;9.70;7.50;;;;;;;16.59;100.00;96682.23;106881;1274;24342;-78
2023/07/25 00:34:06;;;;;;;13.30;8.00;;;;;;;16.56;100.00;96684.90;106788;1274;25297;-78
2023/07/25 00:36:34;;;;;;;10.10;7.40;;;;;;;16.51;100.00;96684.20;106921;1274;24240;-78
2023/07/25 00:39:02;;;;;;;11.70;7.40;;;;;;;16.51;100.00;96686.67;106932;1274;24368;-78
2023/07/25 00:41:30;;;;;;;12.70;9.70;;;;;;;16.47;100.00;96686.02;106917;1262;22648;-78
2023/07/25 00:43:59;;;;;;;13.00;8.50;;;;;;;16.49;100.00;96691.86;107110;1274;22521;-78
2023/07/25 00:46:27;;;;;;;10.80;7.50;;;;;;;16.46;100.00;96690.12;107058;1274;22520;-79
2023/07/25 00:48:55;;;;;;;12.60;7.00;;;;;;;16.50;100.00;96691.33;107136;1274;25406;-78
2023/07/25 00:51:23;;;;;;;10.60;7.80;;;;;;;16.54;100.00;96690.70;107005;1274;22636;-78
2023/07/25 00:53:51;;;;;;;10.20;8.70;;;;;;;16.64;100.00;96692.55;107155;1252;24248;-78
2023/07/25 00:56:19;;;;;;;11.20;8.20;;;;;;;16.75;100.00;96693.73;106958;1274;24406;-78
2023/07/25 00:58:48;;;;;;;13.00;8.80;;;;;;;16.88;100.00;96695.68;107082;1274;22520;-78
2023/07/25 01:01:16;;;;;;;11.80;8.60;;;;;;;16.97;100.00;96696.36;107160;1274;24228;-78
2023/07/25 01:03:44;;;;;;;11.70;7.80;;;;;;;17.07;100.00;96699.04;107153;1274;25325;-79
2023/07/25 01:06:14;;;;;;;10.50;9.20;;;;;;;17.11;100.00;96710.59;106869;1274;22518;-78
2023/07/25 01:08:50;;;;;;;11.50;8.70;;;;;;;17.10;100.00;96711.98;107106;1274;25310;-78
2023/07/25 01:11:18;;;;;;;10.90;8.70;;;;;;;17.13;100.00;96702.30;107126;1274;24241;-78
2023/07/25 01:13:47;;;;;;;12.30;8.70;;;;;;;17.18;100.00;96705.64;107218;1274;22671;-78
2023/07/25 01:16:22;;;;;;;13.00;9.40;;;;;;;17.24;100.00;96701.98;107176;1274;22640;-78
2023/07/25 01:18:52;;;;;;;12.40;8.90;;;;;;;17.34;100.00;96694.77;107145;1274;24319;-79
2023/07/25 01:21:24;;;;;;;13.90;9.60;;;;;;;17.42;100.00;96684.66;107218;1274;24231;-78
2023/07/25 01:23:52;;;;;;;12.60;9.10;;;;;;;17.47;100.00;96682.92;106985;1274;24421;-78
2023/07/25 01:26:22;;;;;;;12.50;9.60;;;;;;;17.51;100.00;96691.38;106892;1274;22537;-78
2023/07/25 01:28:50;;;;;;;11.60;10.40;;;;;;;17.54;100.00;96701.52;107216;1252;22581;-78
2023/07/25 01:31:18;;;;;;;12.70;9.60;;;;;;;17.55;100.00;96702.30;107231;1274;24381;-79
2023/07/25 01:33:46;;;;;;;13.10;9.30;;;;;;;17.55;100.00;96703.63;107165;1274;25511;-78
2023/07/25 01:36:14;;;;;;;12.90;9.30;;;;;;;17.57;100.00;96705.98;106905;1274;22675;-78
2023/07/25 01:38:42;;;;;;;12.80;9.50;;;;;;;17.59;100.00;96702.02;107135;1274;22534;-78
2023/07/25 01:41:10;;;;;;;17.80;9.80;;;;;;;17.59;100.00;96698.60;107146;1274;23935;-78
2023/07/25 01:43:38;;;;;;;11.90;9.90;;;;;;;17.57;100.00;96698.67;107149;1274;22517;-79
2023/07/25 01:46:06;;;;;;;13.80;9.30;;;;;;;17.56;100.00;96710.09;107102;1274;24668;-78
2023/07/25 01:48:35;;;;;;;13.60;9.60;;;;;;;17.53;100.00;96719.34;107009;1274;22641;-79
2023/07/25 01:51:03;;;;;;;11.40;10.10;;;;;;;17.54;100.00;96731.55;107164;1274;22574;-79
2023/07/25 01:53:31;;;;;;;13.50;10.70;;;;;;;17.54;100.00;96734.59;107089;1274;22579;-79
2023/07/25 01:55:59;;;;;;;13.20;10.50;;;;;;;17.55;100.00;96733.90;107145;1274;22618;-79
2023/07/25 01:58:27;;;;;;;14.60;11.00;;;;;;;17.54;100.00;96730.16;107064;1274;22580;-79
2023/07/25 02:00:59;;;;;;;15.20;11.40;;;;;;;17.56;100.00;96724.02;107083;1274;24302;-79
2023/07/25 02:03:27;;;;;;;13.50;11.50;;;;;;;17.53;100.00;96723.53;107188;1270;22650;-79
2023/07/25 02:05:55;;;;;;;14.00;11.10;;;;;;;17.53;100.00;96724.15;107180;1274;22574;-79
2023/07/25 02:08:23;;;;;;;12.80;10.70;;;;;;;17.51;100.00;96731.30;107163;1274;22537;-79
2023/07/25 02:10:52;;;;;;;14.60;11.20;;;;;;;17.50;100.00;96740.23;107077;1274;22521;-79
2023/07/25 02:13:20;;;;;;;15.90;11.30;;;;;;;17.50;100.00;96736.81;106889;1274;22633;-78
2023/07/25 02:15:48;;;;;;;14.90;11.60;;;;;;;17.50;100.00;96730.58;106796;1274;25378;-80
2023/07/25 02:18:16;;;;;;;13.20;11.70;;;;;;;17.51;100.00;96730.11;107239;1274;25478;-81
2023/07/25 02:20:44;;;;;;;18.50;11.20;;;;;;;17.50;100.00;96729.89;107153;1274;26528;-79
2023/07/25 02:23:12;;;;;;;15.60;11.90;;;;;;;17.48;100.00;96725.34;107062;1274;22637;-79
2023/07/25 02:25:40;;;;;;;18.90;11.70;;;;;;;17.48;100.00;96721.14;107041;1274;22645;-79
2023/07/25 02:28:08;;;;;;;22.30;11.80;;;;;;;17.44;100.00;96728.18;107184;1274;22650;-79
2023/07/25 02:30:36;;;;;;;14.60;10.90;;;;;;;17.40;100.00;96727.44;107056;1274;25379;-79
2023/07/25 02:33:04;;;;;;;18.50;11.70;;;;;;;17.36;100.00;96726.92;107115;1274;27705;-79
2023/07/25 02:35:32;;;;;;;12.70;11.20;;;;;;;17.34;100.00;96725.95;107148;1274;23874;-79
2023/07/25 02:38:00;;;;;;;13.60;11.50;;;;;;;17.30;100.00;96716.89;107032;1274;24267;-79
2023/07/25 02:40:28;;;;;;;15.00;11.10;;;;;;;17.27;100.00;96723.79;107184;1274;22527;-79
2023/07/25 02:42:56;;;;;;;13.00;10.60;;;;;;;17.26;100.00;96727.65;107139;1274;22653;-80
2023/07/25 02:45:24;;;;;;;14.50;9.70;;;;;;;17.24;100.00;96741.40;107102;1274;22525;-79
2023/07/25 02:47:52;;;;;;;12.30;10.30;;;;;;;17.19;100.00;96745.77;106856;1274;24345;-79
2023/07/25 02:50:22;;;;;;;14.20;9.90;;;;;;;17.07;100.00;96750.45;107172;1252;22638;-77
2023/07/25 02:52:50;;;;;;;12.90;10.20;;;;;;;16.97;100.00;96750.94;107168;1274;25579;-77
2023/07/25 02:55:18;;;;;;;18.50;9.40;;;;;;;16.90;100.00;96741.98;106838;1274;22518;-77
2023/07/25 02:57:46;;;;;;;13.10;11.30;;;;;;;16.82;100.00;96743.34;107142;1274;24240;-78
2023/07/25 03:00:14;;;;;;;14.00;9.40;;;;;;;16.79;100.00;96743.15;106883;1274;25348;-78
2023/07/25 03:02:42;;;;;;;14.40;11.40;;;;;;;16.71;100.00;96751.79;107068;1274;22524;-78
2023/07/25 03:05:11;;;;;;;11.50;9.90;;;;;;;16.62;100.00;96754.45;107125;1274;23347;-79
2023/07/25 03:07:39;;;;;;;14.90;11.20;;;;;;;16.53;100.00;96747.48;106989;1274;22640;-78
2023/07/25 03:10:07;;;;;;;15.30;11.20;;;;;;;16.48;100.00;96738.85;107149;1274;25501;-79
2023/07/25 03:12:35;;;;;;;17.60;10.60;;;;;;;16.47;100.00;96744.66;107034;1274;22929;-79
2023/07/25 03:15:04;;;;;;;10.90;9.80;;;;;;;16.46;100.00;96746.59;106865;1274;22551;-81
2023/07/25 03:17:32;;;;;;;14.70;10.40;;;;;;;16.48;100.00;96746.02;107051;1274;22557;-78
2023/07/25 03:20:00;;;;;;;14.00;10.00;;;;;;;16.51;100.00;96742.69;107037;1274;22592;-79
2023/07/25 03:22:28;;;;;;;11.70;9.90;;;;;;;16.53;100.00;96745.67;107199;1274;22645;-79
2023/07/25 03:24:56;;;;;;;13.70;11.50;;;;;;;16.47;100.00;96742.72;107325;1274;22522;-79
2023/07/25 03:27:25;;;;;;;14.90;11.20;;;;;;;16.49;100.00;96739.55;107278;1274;23397;-78
2023/07/25 03:29:53;;;;;;;17.10;15.20;;;;;;;16.52;100.00;96737.27;107198;1274;24278;-80
2023/07/25 03:32:21;;;;;;;15.40;12.40;;;;;;;16.51;100.00;96745.52;107189;1274;22716;-78
2023/07/25 03:34:49;;;;;;;13.60;11.00;;;;;;;16.45;100.00;96746.48;107068;1274;23493;-78
2023/07/25 03:37:17;;;;;;;17.40;13.20;;;;;;;16.38;100.00;96736.52;106908;1274;25240;-79
2023/07/25 03:39:45;;;;;;;13.10;11.30;;;;;;;16.28;100.00;96729.61;107312;1274;22550;-79
2023/07/25 03:42:13;;;;;;;12.70;10.50;;;;;;;16.26;100.00;96732.69;107158;1274;25393;-79
2023/07/25 03:44:41;;;;;;;11.40;9.90;;;;;;;16.24;100.00;96739.10;107191;1274;22622;-79
2023/07/25 03:47:09;;;;;;;13.30;11.30;;;;;;;16.22;100.00;96743.88;107107;1254;22528;-79
2023/07/25 03:49:37;;;;;;;12.80;9.60;;;;;;;16.23;100.00;96750.58;107176;1274;24190;-80
2023/07/25 03:52:05;;;;;;;14.50;12.30;;;;;;;16.23;100.00;96749.09;107159;1274;22645;-79
2023/07/25 03:54:33;;;;;;;14.40;12.90;;;;;;;16.27;100.00;96744.64;107041;1274;22937;-79
2023/07/25 03:57:01;;;;;;;12.00;10.50;;;;;;;16.34;100.00;96741.59;107155;1274;22533;-78
2023/07/25 03:59:29;;;;;;;14.30;11.10;;;;;;;16.40;100.00;96750.23;107151;1274;22678;-78
2023/07/25 04:01:57;;;;;;;17.50;12.00;;;;;;;16.37;100.00;96742.79;107146;1274;25259;-78
2023/07/25 04:04:25;;;;;;;17.20;14.20;;;;;;;16.33;100.00;96743.14;107076;1274;25425;-78
2023/07/25 04:06:54;;;;;;;18.90;14.10;;;;;;;16.37;100.00;96729.21;106850;1274;22532;-78
2023/07/25 04:09:22;;;;;;;17.20;12.40;;;;;;;16.44;100.00;96729.15;107131;1274;24349;-79
2023/07/25 04:11:50;;;;;;;17.50;12.60;;;;;;;16.48;100.00;96735.67;107153;1274;22633;-79
2023/07/25 04:14:18;;;;;;;15.70;14.00;;;;;;;16.53;100.00;96742.73;107118;1275;24482;-79
2023/07/25 04:16:46;;;;;;;16.00;13.50;;;;;;;16.58;100.00;96754.70;107085;1275;23197;-79
2023/07/25 04:19:15;;;;;;;17.40;12.80;;;;;;;16.59;100.00;96756.73;107106;1275;23006;-79
2023/07/25 04:21:43;;;;;;;20.90;13.40;;;;;;;16.63;100.00;96753.83;107219;1275;22521;-79
2023/07/25 04:24:11;;;;;;;15.50;13.60;;;;;;;16.71;100.00;96751.70;107404;1275;25307;-79
2023/07/25 04:26:39;;;;;;;18.60;12.50;;;;;;;16.78;100.00;96755.95;107183;1275;22524;-79
2023/07/25 04:29:07;;;;;;;18.30;13.70;;;;;;;16.84;100.00;96753.00;106837;1275;22638;-79
2023/07/25 04:31:34;;;;;;;16.40;14.60;;;;;;;16.96;100.00;96750.67;107075;1275;25394;-79
2023/07/25 04:34:02;;;;;;;17.20;13.50;;;;;;;17.06;100.00;96747.55;107030;1275;22965;-79
2023/07/25 04:36:30;;;;;;;16.90;14.00;;;;;;;17.11;100.00;96746.14;107052;1275;22734;-79
2023/07/25 04:38:58;;;;;;;16.10;13.20;;;;;;;17.16;100.00;96744.10;106898;1275;25387;-79
2023/07/25 04:41:27;;;;;;;17.30;12.80;;;;;;;17.22;100.00;96741.37;107095;1275;22573;-79
2023/07/25 04:43:55;;;;;;;18.50;13.20;;;;;;;17.28;100.00;96743.77;106943;1275;25329;-79
2023/07/25 04:46:23;;;;;;;20.60;13.40;;;;;;;17.38;100.00;96747.09;107036;1275;22529;-78
2023/07/25 04:48:50;;;;;;;16.60;11.90;;;;;;;17.46;100.00;96748.52;106837;1275;24337;-78
2023/07/25 04:51:18;;;;;;;14.80;11.60;;;;;;;17.55;100.00;96754.60;107044;1275;25400;-78
2023/07/25 04:53:46;;;;;;;14.90;11.70;;;;;;;17.62;100.00;96757.55;106845;1275;22525;-78
2023/07/25 04:56:14;;;;;;;15.70;12.80;;;;;;;17.68;100.00;96763.85;106995;1263;22538;-79
2023/07/25 04:58:42;;;;;;;14.80;13.00;;;;;;;17.74;100.00;96760.33;107027;1254;23162;-78
2023/07/25 05:01:12;;;;;;;14.40;11.70;;;;;;;17.82;100.00;96757.02;107029;1275;22536;-78
2023/07/25 05:03:40;;;;;;;17.40;11.40;;;;;;;17.89;100.00;96746.89;107160;1275;22526;-78
2023/07/25 05:06:08;;;;;;;13.90;11.60;;;;;;;17.99;100.00;96738.58;107088;1275;24198;-77
2023/07/25 05:08:36;;;;;;;17.30;11.80;;;;;;;18.08;100.00;96735.86;106853;1259;22557;-78
2023/07/25 05:11:04;;;;;;;18.90;12.40;;;;;;;18.15;100.00;96737.55;107102;1275;22555;-78
2023/07/25 05:13:32;;;;;;;17.40;12.40;;;;;;;18.26;100.00;96738.50;106901;1274;22539;-78
2023/07/25 05:16:00;;;;;;;16.40;11.30;;;;;;;18.39;100.00;96746.46;107048;1274;24224;-79
2023/07/25 05:18:28;;;;;;;17.00;11.60;;;;;;;18.50;100.00;96736.42;107140;1274;22518;-79
2023/07/25 05:20:56;;;;;;;14.70;11.00;;;;;;;18.59;100.00;96726.59;107125;1274;23152;-79
2023/07/25 05:23:24;;;;;;;17.90;11.30;;;;;;;18.68;100.00;96726.64;107048;1272;22546;-78
2023/07/25 05:25:52;;;;;;;15.60;11.10;;;;;;;18.79;100.00;96729.31;107200;1274;22568;-78
2023/07/25 05:28:20;;;;;;;17.80;11.50;;;;;;;18.88;100.00;96732.80;107219;1274;24378;-79
2023/07/25 05:30:48;;;;;;;14.60;11.10;;;;;;;18.96;100.00;96735.27;107223;1274;22611;-79
2023/07/25 05:33:16;;;;;;;20.40;10.90;;;;;;;19.03;100.00;96737.48;107121;1252;22644;-79
2023/07/25 05:35:44;;;;;;;13.60;10.60;;;;;;;19.10;100.00;96739.85;107180;1274;22534;-79
2023/07/25 05:38:12;;;;;;;14.20;10.00;;;;;;;19.16;100.00;96738.71;107119;1274;22651;-79
2023/07/25 05:40:40;;;;;;;13.50;10.90;;;;;;;19.20;100.00;96736.02;106849;1274;22531;-79
2023/07/25 05:43:11;;;;;;;17.00;9.80;;;;;;;19.26;100.00;96734.16;107224;1274;25608;-79
2023/07/25 05:45:39;;;;;;;13.10;10.60;;;;;;;19.38;100.00;96731.70;107153;1274;25595;-79
2023/07/25 05:48:07;;;;;;;15.00;9.80;;;;;;;19.46;100.00;96721.03;107158;1274;23001;-79
2023/07/25 05:50:35;;;;;;;15.00;10.20;;;;;;;19.52;100.00;96724.33;107167;1274;24205;-79
2023/07/25 05:53:03;;;;;;;14.90;10.60;;;;;;;19.60;100.00;96734.04;107121;1274;22636;-78
2023/07/25 05:55:31;;;;;;;13.60;9.90;;;;;;;19.68;100.00;96730.51;107174;1274;22583;-78
2023/07/25 05:57:59;;;;;;;11.00;9.20;;;;;;;19.75;99.88;96730.83;107146;1274;22756;-78
2023/07/25 06:00:27;;;;;;;11.20;10.00;;;;;;;19.77;99.79;96738.09;106886;1274;22570;-78
2023/07/25 06:02:55;;;;;;;13.80;9.90;;;;;;;19.82;100.00;96742.40;106825;1274;25403;-77
2023/07/25 06:05:23;;;;;;;15.00;10.70;;;;;;;19.89;99.94;96740.38;106888;1274;22643;-78
2023/07/25 06:07:51;;;;;;;13.40;9.60;;;;;;;19.97;99.82;96732.73;107122;1274;24379;-77
2023/07/25 06:10:19;;;;;;;12.20;9.80;;;;;;;20.02;97.99;96728.91;106881;1272;22548;-78
2023/07/25 06:12:47;;;;;;;13.40;10.20;;;;;;;20.05;98.25;96727.20;107149;1274;23896;-78
2023/07/25 06:15:15;;;;;;;15.80;11.10;;;;;;;20.12;99.52;96729.94;107171;1274;24445;-78
2023/07/25 06:17:43;;;;;;;13.60;10.30;;;;;;;20.20;97.97;96734.48;107158;1274;24366;-78
2023/07/25 06:20:12;;;;;;;12.20;9.10;;;;;;;20.28;98.31;96732.84;106940;1274;25243;-78
2023/07/25 06:22:40;;;;;;;11.70;9.00;;;;;;;20.36;95.95;96732.77;107180;1274;23153;-79
2023/07/25 06:25:08;;;;;;;14.00;10.20;;;;;;;20.43;96.99;96737.36;107018;1274;22527;-79
2023/07/25 06:27:36;;;;;;;11.70;9.60;;;;;;;20.51;96.40;96740.58;107283;1274;22741;-78
2023/07/25 06:30:05;;;;;;;13.70;10.90;;;;;;;20.59;96.60;96737.94;107118;1274;22623;-78
2023/07/25 06:32:34;;;;;;;10.90;9.80;;;;;;;20.65;95.58;96737.30;107185;1274;25344;-78
2023/07/25 06:35:03;;;;;;;13.90;11.00;;;;;;;20.75;93.34;96747.92;106952;1274;22558;-78
2023/07/25 06:37:36;;;;;;;12.20;9.60;;;;;;;20.78;93.08;96747.22;107064;1274;22681;-79
2023/07/25 06:40:05;;;;;;;11.40;10.20;;;;;;;20.85;92.64;96750.73;107136;1274;22633;-78
2023/07/25 06:42:33;;;;;;;16.40;10.40;;;;;;;20.87;90.43;96750.95;106897;1274;22541;-77
2023/07/25 06:45:03;;;;;;;12.90;9.60;;;;;;;20.87;89.80;96751.27;106876;1274;22525;-78
2023/07/25 06:47:31;;;;;;;14.20;9.30;;;;;;;20.88;90.12;96747.44;107155;1274;22570;-78
2023/07/25 06:49:59;;;;;;;52.70;26.60;;;;;;;20.94;89.70;96749.08;107134;1274;22818;-78
2023/07/25 06:52:28;;;;;;;27.60;16.60;;;;;;;20.98;89.23;96742.64;107143;1274;25419;-78
2023/07/25 06:54:57;;;;;;;11.40;9.50;;;;;;;21.08;90.43;96744.09;107128;1274;22648;-78
2023/07/25 06:57:25;;;;;;;20.50;13.00;;;;;;;21.17;89.49;96746.02;107148;1274;22521;-78
2023/07/25 06:59:53;;;;;;;23.80;14.50;;;;;;;21.25;88.83;96750.46;107300;1274;22603;-76
2023/07/25 07:02:21;;;;;;;14.60;9.10;;;;;;;21.29;87.75;96757.56;107425;1274;22901;-77
2023/07/25 07:04:50;;;;;;;13.30;11.40;;;;;;;21.32;86.92;96763.04;107002;1274;25351;-77
2023/07/25 07:07:18;;;;;;;11.50;10.20;;;;;;;21.38;85.95;96754.98;106961;1274;25252;-78
2023/07/25 07:09:46;;;;;;;11.50;9.70;;;;;;;21.41;85.25;96748.31;106951;1274;22694;-77
2023/07/25 07:12:15;;;;;;;10.80;9.70;;;;;;;21.43;86.11;96740.48;106909;1274;25315;-77
2023/07/25 07:14:44;;;;;;;13.70;9.70;;;;;;;21.50;86.32;96731.83;106900;1274;22665;-78
2023/07/25 07:17:12;;;;;;;12.60;9.10;;;;;;;21.56;85.59;96729.14;106901;1274;22521;-79
2023/07/25 07:19:40;;;;;;;13.70;9.20;;;;;;;21.67;86.37;96723.36;106881;1274;22537;-82
2023/07/25 07:22:08;;;;;;;12.50;9.30;;;;;;;21.78;86.03;96723.69;107218;1274;24356;-78
2023/07/25 07:24:36;;;;;;;10.70;8.60;;;;;;;21.84;84.52;96717.70;106800;1274;24048;-79
2023/07/25 07:27:04;;;;;;;14.40;9.90;;;;;;;21.86;84.96;96715.19;107155;1274;22956;-78
2023/07/25 07:29:32;;;;;;;11.90;8.90;;;;;;;21.90;85.19;96704.18;106854;1274;26621;-77
2023/07/25 07:32:02;;;;;;;11.70;9.20;;;;;;;21.96;85.20;96703.98;106944;1274;22521;-78
2023/07/25 07:34:30;;;;;;;10.30;9.20;;;;;;;22.03;85.97;96705.89;106918;1274;24517;-79
2023/07/25 07:36:58;;;;;;;12.00;8.90;;;;;;;22.14;84.34;96711.14;106901;1274;22605;-78
2023/07/25 07:39:26;;;;;;;15.10;8.40;;;;;;;22.21;83.12;96705.63;106920;1274;22540;-78
2023/07/25 07:41:55;;;;;;;10.70;8.80;;;;;;;22.34;84.53;96700.60;106907;1274;25227;-78
2023/07/25 07:44:23;;;;;;;14.10;9.40;;;;;;;22.47;83.62;96694.12;106866;1274;22779;-78
2023/07/25 07:46:52;;;;;;;12.20;8.50;;;;;;;22.53;82.87;96691.73;106937;1274;22633;-80
2023/07/25 07:49:34;;;;;;;8.90;7.90;;;;;;;22.65;81.69;96692.45;107166;1274;22630;-80
2023/07/25 07:52:02;;;;;;;12.30;8.40;;;;;;;22.65;80.15;96700.30;106907;1263;24257;-81
2023/07/25 07:54:33;;;;;;;12.60;8.50;;;;;;;22.73;80.83;96697.00;107118;1274;24308;-80
2023/07/25 07:57:01;;;;;;;10.70;7.80;;;;;;;22.85;80.28;96696.80;106908;1252;24246;-80
2023/07/25 07:59:29;;;;;;;10.40;8.80;;;;;;;23.04;80.33;96705.72;107152;1264;22561;-78
2023/07/25 08:01:57;;;;;;;11.60;7.90;;;;;;;23.14;77.88;96712.36;107206;1274;25393;-78
2023/07/25 08:04:25;;;;;;;20.00;8.50;;;;;;;23.16;78.82;96718.63;107200;1274;25411;-77
2023/07/25 08:06:53;;;;;;;10.50;8.40;;;;;;;23.19;77.56;96718.27;106884;1274;25383;-77
2023/07/25 08:09:21;;;;;;;9.00;8.10;;;;;;;23.14;74.73;96723.98;106898;1274;25406;-77
2023/07/25 08:11:49;;;;;;;11.40;8.90;;;;;;;23.01;75.01;96725.46;106866;1274;24230;-77
2023/07/25 08:14:17;;;;;;;9.20;7.60;;;;;;;22.96;75.42;96720.02;106841;1274;22527;-77
2023/07/25 08:16:46;;;;;;;10.80;8.30;;;;;;;22.90;74.57;96709.00;106876;1274;22516;-77
2023/07/25 08:19:14;;;;;;;11.40;9.80;;;;;;;22.86;73.46;96704.73;106917;1274;24368;-76
2023/07/25 08:21:42;;;;;;;12.30;10.10;;;;;;;22.85;73.15;96699.70;106871;1274;22517;-78
2023/07/25 08:24:09;;;;;;;10.20;7.90;;;;;;;22.85;73.30;96688.88;107068;1274;25315;-78
2023/07/25 08:26:37;;;;;;;13.70;9.40;;;;;;;22.88;73.93;96695.44;107116;1274;25329;-77
2023/07/25 08:29:05;;;;;;;17.10;9.30;;;;;;;22.92;73.45;96694.21;107082;1274;23140;-77
2023/07/25 08:31:33;;;;;;;16.20;11.10;;;;;;;22.90;72.91;96691.34;107092;1274;22595;-77
2023/07/25 08:34:02;;;;;;;11.20;9.00;;;;;;;22.93;73.29;96687.77;106867;1274;22933;-78
2023/07/25 08:36:30;;;;;;;20.60;10.30;;;;;;;23.06;72.24;96691.81;106919;1274;24187;-77
2023/07/25 08:38:58;;;;;;;13.40;9.20;;;;;;;23.14;72.68;96694.23;106873;1274;25303;-78
2023/07/25 08:41:30;;;;;;;10.20;7.50;;;;;;;23.37;74.05;96690.56;106888;1259;24248;-77
2023/07/25 08:44:01;;;;;;;9.20;7.50;;;;;;;23.54;70.50;96697.72;107223;1274;22750;-76
2023/07/25 08:46:30;;;;;;;9.70;8.40;;;;;;;23.61;71.73;96706.05;107092;1274;23141;-76
2023/07/25 08:49:03;;;;;;;9.20;7.50;;;;;;;23.80;71.35;96696.99;107256;1274;22564;-77
2023/07/25 08:51:39;;;;;;;11.30;9.30;;;;;;;23.98;70.26;96688.09;107153;1274;22735;-78
2023/07/25 08:54:25;;;;;;;9.30;8.10;;;;;;;24.03;68.98;96686.75;106893;1274;22534;-77
2023/07/25 08:56:53;;;;;;;9.70;8.20;;;;;;;24.03;69.47;96683.52;106911;1275;22520;-77
2023/07/25 08:59:23;;;;;;;9.40;7.40;;;;;;;23.98;69.07;96683.11;106983;1274;22609;-79
2023/07/25 09:01:54;;;;;;;10.50;7.80;;;;;;;24.06;70.36;96680.11;106890;1266;24186;-77
2023/07/25 09:04:24;;;;;;;9.90;7.20;;;;;;;24.04;67.69;96686.48;106937;1274;25315;-78
2023/07/25 09:06:53;;;;;;;10.10;7.60;;;;;;;23.79;68.13;96681.63;106893;1275;22717;-76
2023/07/25 09:09:23;;;;;;;9.40;7.70;;;;;;;23.72;69.45;96678.72;106895;1274;24291;-77
2023/07/25 09:11:51;;;;;;;11.50;7.20;;;;;;;23.84;68.61;96675.73;106917;1274;25279;-78
2023/07/25 09:14:19;;;;;;;8.60;7.30;;;;;;;23.88;67.54;96685.71;106937;1274;25348;-79
2023/07/25 09:16:47;;;;;;;8.20;7.40;;;;;;;23.82;67.15;96686.91;106981;1274;22577;-79
2023/07/25 09:19:16;;;;;;;9.70;7.90;;;;;;;23.76;66.24;96679.38;107021;1275;26714;-78
2023/07/25 09:21:48;;;;;;;9.10;7.50;;;;;;;23.81;67.06;96672.39;106944;1274;22518;-78
2023/07/25 09:24:16;;;;;;;8.20;7.10;;;;;;;24.01;67.96;96665.00;106890;1274;22633;-77
2023/07/25 09:26:52;;;;;;;10.40;7.70;;;;;;;24.19;67.19;96659.66;106888;1274;22619;-77
2023/07/25 09:29:26;;;;;;;7.70;6.90;;;;;;;24.34;65.63;96653.29;106924;1275;25268;-77
2023/07/25 09:31:54;;;;;;;9.60;6.70;;;;;;;24.38;66.91;96641.27;106888;1274;25390;-76
2023/07/25 09:34:23;;;;;;;9.90;7.60;;;;;;;24.60;66.49;96636.19;106881;1274;23709;-76
2023/07/25 09:36:51;;;;;;;7.40;6.50;;;;;;;24.83;67.11;96631.96;106860;1275;25392;-76
2023/07/25 09:39:19;;;;;;;7.80;6.80;;;;;;;25.03;64.86;96638.27;106874;1274;22578;-76
2023/07/25 09:41:50;;;;;;;7.60;6.20;;;;;;;25.03;63.55;96652.11;106916;1274;25495;-76
2023/07/25 09:44:18;;;;;;;10.10;6.20;;;;;;;25.09;64.06;96655.94;106921;1274;22794;-76
2023/07/25 09:46:53;;;;;;;8.80;6.90;;;;;;;25.19;62.21;96661.75;106892;1274;22538;-77
2023/07/25 09:49:22;;;;;;;8.00;6.40;;;;;;;25.25;61.58;96669.02;107111;1274;22545;-77
2023/07/25 09:51:58;;;;;;;7.30;6.20;;;;;;;25.21;61.32;96664.36;107109;1274;24241;-77
2023/07/25 09:54:27;;;;;;;9.50;6.40;;;;;;;25.27;62.00;96672.05;106962;1274;22532;-77
2023/07/25 09:56:55;;;;;;;10.80;6.40;;;;;;;25.33;61.35;96674.27;106952;1274;22977;-78
2023/07/25 09:59:23;;;;;;;9.20;6.60;;;;;;;25.31;60.26;96678.64;106897;1274;24197;-78
2023/07/25 10:01:52;;;;;;;7.30;6.00;;;;;;;25.19;59.78;96674.02;106889;1274;25383;-77
2023/07/25 10:04:21;;;;;;;7.30;6.00;;;;;;;25.17;60.14;96671.96;106853;1275;22540;-77
2023/07/25 10:06:51;;;;;;;7.90;5.80;;;;;;;25.29;60.97;96661.92;106870;1274;26633;-77
2023/07/25 10:09:19;;;;;;;6.90;6.10;;;;;;;25.52;60.92;96656.77;106889;1274;22522;-77
2023/07/25 10:11:50;;;;;;;8.20;5.90;;;;;;;25.73;58.71;96647.09;106930;1274;22994;-77
2023/07/25 10:14:18;;;;;;;8.70;5.80;;;;;;;25.84;58.77;96638.65;106961;1274;22759;-78
2023/07/25 10:16:47;;;;;;;8.50;6.00;;;;;;;26.02;59.78;96639.02;107109;1274;24368;-78
2023/07/25 10:19:15;;;;;;;7.40;6.10;;;;;;;26.19;58.90;96639.23;107174;1274;25316;-78
2023/07/25 10:21:48;;;;;;;9.80;6.10;;;;;;;26.08;57.66;96634.06;107081;1256;23228;-78
2023/07/25 10:24:17;;;;;;;7.40;5.90;;;;;;;25.95;58.26;96631.87;106871;1274;22981;-76
2023/07/25 10:26:53;;;;;;;7.20;6.00;;;;;;;25.92;57.88;96627.52;106919;1274;22750;-76
2023/07/25 10:29:35;;;;;;;8.60;6.30;;;;;;;25.89;58.17;96621.52;106831;1274;22652;-77
2023/07/25 10:32:03;;;;;;;6.80;5.50;;;;;;;25.94;58.94;96614.47;106885;1274;24228;-78
2023/07/25 10:34:48;;;;;;;8.50;5.70;;;;;;;26.06;59.18;96608.09;107014;1274;25398;-77
2023/07/25 10:37:23;;;;;;;6.40;5.20;;;;;;;26.19;57.00;96609.10;107136;1251;22647;-77
2023/07/25 10:40:03;;;;;;;9.80;5.30;;;;;;;26.11;57.02;96606.69;107117;1274;22573;-77
2023/07/25 10:42:48;;;;;;;6.70;5.10;;;;;;;26.24;57.44;96600.75;106886;1274;22801;-77
2023/07/25 10:45:45;;;;;;;6.80;5.10;;;;;;;26.40;56.03;96587.89;106849;1274;25591;-77
2023/07/25 10:48:30;;;;;;;7.10;5.60;;;;;;;26.53;55.43;96594.91;106858;1274;23036;-77
2023/07/25 10:50:59;;;;;;;6.70;5.30;;;;;;;26.50;55.06;96600.58;106868;1274;24056;-77
2023/07/25 10:53:28;;;;;;;9.70;6.30;;;;;;;26.41;55.05;96598.27;106935;1274;24385;-77
2023/07/25 10:56:05;;;;;;;6.70;5.10;;;;;;;26.30;55.64;96596.67;107133;1274;25311;-77
2023/07/25 10:58:58;;;;;;;6.00;5.30;;;;;;;26.20;55.78;96596.93;106938;1274;22540;-76
2023/07/25 11:01:47;;;;;;;11.20;5.70;;;;;;;25.93;55.13;96586.79;107024;1274;22596;-78
2023/07/25 11:04:32;;;;;;;6.50;5.20;;;;;;;25.69;56.06;96589.96;107218;1274;22647;-77
2023/07/25 11:07:19;;;;;;;6.40;5.10;;;;;;;25.60;55.63;96587.96;107103;1274;25376;-77
2023/07/25 11:09:47;;;;;;;8.10;5.30;;;;;;;25.42;54.85;96578.23;107164;1264;24211;-77
2023/07/25 11:12:22;;;;;;;7.00;4.50;;;;;;;25.35;54.92;96578.21;107146;1269;24239;-77
2023/07/25 11:14:50;;;;;;;6.50;4.20;;;;;;;25.36;54.85;96580.08;107160;1274;23969;-77
2023/07/25 11:17:19;;;;;;;12.10;4.80;;;;;;;25.38;54.86;96576.56;107018;1274;24388;-76
2023/07/25 11:19:47;;;;;;;7.40;4.50;;;;;;;25.42;54.26;96576.34;106915;1274;25466;-76
2023/07/25 11:22:15;;;;;;;7.20;4.40;;;;;;;25.43;53.16;96576.38;106890;1274;25343;-77